Bremen, Illinois
Current Conditions -  °F | °C
As of 2:15 PM on Wednesday 28 Jan 2015 (Local Time) from KSAR Reporting Station
Clear Clear  
Wind Chill: 38°   Ceiling: Unl
Heat Index: 44°   Visibility: 10mi
Dew Point: 31°   Wind: 14mph
Humidity: 59%   Direction: 160°SSE
Pressure: 30.11"   Gusts: 22mph
Location:  37.9444°N, 89.7851°W
Report Text: KSAR 282015Z AUTO 16012G19KT 10SM CLR 07/M01 A3011 RMK AO2 T00681007
Loading
Personal Weather Stations






























Interactive Weather Map New forecast layout! Learn more

10-Day Weather Forecast

Advertisements
Track Severe Weather on mobile